sensor_id;sensor_type;location;lat;lon;timestamp;P1;durP1;ratioP1;P2;durP2;ratioP2
80231;SDS011;70197;42.124;24.752;2023-09-12T00:00:51;6.32;;;4.10;;
80231;SDS011;70197;42.124;24.752;2023-09-12T00:03:21;7.53;;;4.10;;
80231;SDS011;70197;42.124;24.752;2023-09-12T00:05:54;6.00;;;3.75;;
80231;SDS011;70197;42.124;24.752;2023-09-12T00:08:22;7.63;;;4.40;;
80231;SDS011;70197;42.124;24.752;2023-09-12T00:11:06;8.13;;;3.92;;
80231;SDS011;70197;42.124;24.752;2023-09-12T00:13:36;9.95;;;4.40;;
80231;SDS011;70197;42.124;24.752;2023-09-12T00:16:03;9.45;;;4.20;;
80231;SDS011;70197;42.124;24.752;2023-09-12T00:18:30;9.13;;;3.88;;
80231;SDS011;70197;42.124;24.752;2023-09-12T00:20:56;8.20;;;3.92;;
80231;SDS011;70197;42.124;24.752;2023-09-12T00:23:22;12.45;;;3.83;;
80231;SDS011;70197;42.124;24.752;2023-09-12T00:25:49;10.60;;;3.90;;
80231;SDS011;70197;42.124;24.752;2023-09-12T00:28:16;9.25;;;4.13;;
80231;SDS011;70197;42.124;24.752;2023-09-12T00:30:42;10.00;;;4.13;;
80231;SDS011;70197;42.124;24.752;2023-09-12T00:33:08;9.35;;;4.30;;
80231;SDS011;70197;42.124;24.752;2023-09-12T00:35:34;7.55;;;4.00;;
80231;SDS011;70197;42.124;24.752;2023-09-12T00:37:59;9.15;;;4.20;;
80231;SDS011;70197;42.124;24.752;2023-09-12T00:40:25;10.07;;;3.72;;
80231;SDS011;70197;42.124;24.752;2023-09-12T00:42:51;12.15;;;4.20;;
80231;SDS011;70197;42.124;24.752;2023-09-12T00:45:16;7.75;;;4.18;;
80231;SDS011;70197;42.124;24.752;2023-09-12T00:47:42;11.77;;;4.32;;
80231;SDS011;70197;42.124;24.752;2023-09-12T00:50:08;9.57;;;4.28;;
80231;SDS011;70197;42.124;24.752;2023-09-12T00:52:35;7.53;;;4.07;;
80231;SDS011;70197;42.124;24.752;2023-09-12T00:55:01;7.15;;;4.22;;
80231;SDS011;70197;42.124;24.752;2023-09-12T00:57:28;11.52;;;4.18;;
80231;SDS011;70197;42.124;24.752;2023-09-12T00:59:55;8.43;;;4.10;;
80231;SDS011;70197;42.124;24.752;2023-09-12T01:02:22;8.57;;;4.38;;
80231;SDS011;70197;42.124;24.752;2023-09-12T01:04:49;9.27;;;3.97;;
80231;SDS011;70197;42.124;24.752;2023-09-12T01:07:15;9.32;;;4.30;;
80231;SDS011;70197;42.124;24.752;2023-09-12T01:09:41;9.55;;;4.45;;
80231;SDS011;70197;42.124;24.752;2023-09-12T01:12:07;8.48;;;3.70;;
80231;SDS011;70197;42.124;24.752;2023-09-12T01:14:33;8.23;;;4.22;;
80231;SDS011;70197;42.124;24.752;2023-09-12T01:16:59;9.45;;;4.25;;
80231;SDS011;70197;42.124;24.752;2023-09-12T01:19:26;10.15;;;4.00;;
80231;SDS011;70197;42.124;24.752;2023-09-12T01:29:53;8.93;;;4.00;;
80231;SDS011;70197;42.124;24.752;2023-09-12T01:32:22;10.43;;;4.10;;
80231;SDS011;70197;42.124;24.752;2023-09-12T01:34:48;15.70;;;4.63;;
80231;SDS011;70197;42.124;24.752;2023-09-12T01:37:14;7.57;;;4.18;;
80231;SDS011;70197;42.124;24.752;2023-09-12T01:39:40;9.52;;;4.30;;
80231;SDS011;70197;42.124;24.752;2023-09-12T01:42:06;14.63;;;4.35;;
80231;SDS011;70197;42.124;24.752;2023-09-12T01:44:36;8.93;;;4.05;;
80231;SDS011;70197;42.124;24.752;2023-09-12T01:47:03;11.43;;;4.15;;
80231;SDS011;70197;42.124;24.752;2023-09-12T01:49:30;15.10;;;4.28;;
80231;SDS011;70197;42.124;24.752;2023-09-12T01:51:58;11.98;;;3.78;;
80231;SDS011;70197;42.124;24.752;2023-09-12T01:54:25;8.30;;;3.85;;
80231;SDS011;70197;42.124;24.752;2023-09-12T01:56:52;8.70;;;4.30;;
80231;SDS011;70197;42.124;24.752;2023-09-12T01:59:22;5.55;;;3.78;;
80231;SDS011;70197;42.124;24.752;2023-09-12T02:01:48;7.18;;;3.53;;
80231;SDS011;70197;42.124;24.752;2023-09-12T02:04:14;10.07;;;4.18;;
80231;SDS011;70197;42.124;24.752;2023-09-12T02:06:39;9.70;;;3.95;;
80231;SDS011;70197;42.124;24.752;2023-09-12T02:09:05;8.38;;;3.95;;
80231;SDS011;70197;42.124;24.752;2023-09-12T02:11:31;7.22;;;3.58;;
80231;SDS011;70197;42.124;24.752;2023-09-12T02:13:56;7.07;;;3.80;;
80231;SDS011;70197;42.124;24.752;2023-09-12T02:16:22;5.78;;;3.63;;
80231;SDS011;70197;42.124;24.752;2023-09-12T02:18:47;9.98;;;4.22;;
80231;SDS011;70197;42.124;24.752;2023-09-12T02:21:13;8.70;;;4.22;;
80231;SDS011;70197;42.124;24.752;2023-09-12T02:23:40;7.60;;;3.75;;
80231;SDS011;70197;42.124;24.752;2023-09-12T02:26:07;6.13;;;3.88;;
80231;SDS011;70197;42.124;24.752;2023-09-12T02:28:32;7.95;;;3.92;;
80231;SDS011;70197;42.124;24.752;2023-09-12T02:30:58;6.75;;;3.80;;
80231;SDS011;70197;42.124;24.752;2023-09-12T02:33:24;7.40;;;4.05;;
80231;SDS011;70197;42.124;24.752;2023-09-12T02:35:50;8.68;;;4.10;;
80231;SDS011;70197;42.124;24.752;2023-09-12T02:38:16;8.68;;;4.03;;
80231;SDS011;70197;42.124;24.752;2023-09-12T02:40:42;9.15;;;3.97;;
80231;SDS011;70197;42.124;24.752;2023-09-12T02:43:08;7.38;;;3.67;;
80231;SDS011;70197;42.124;24.752;2023-09-12T02:45:34;9.30;;;4.00;;
80231;SDS011;70197;42.124;24.752;2023-09-12T02:47:59;9.40;;;4.57;;
80231;SDS011;70197;42.124;24.752;2023-09-12T02:50:25;8.45;;;3.85;;
80231;SDS011;70197;42.124;24.752;2023-09-12T02:52:50;13.38;;;4.13;;
80231;SDS011;70197;42.124;24.752;2023-09-12T02:55:16;11.00;;;4.63;;
80231;SDS011;70197;42.124;24.752;2023-09-12T02:57:42;10.43;;;4.55;;
80231;SDS011;70197;42.124;24.752;2023-09-12T03:00:07;7.68;;;3.70;;
80231;SDS011;70197;42.124;24.752;2023-09-12T03:02:34;8.15;;;3.97;;
80231;SDS011;70197;42.124;24.752;2023-09-12T03:04:59;7.93;;;4.25;;
80231;SDS011;70197;42.124;24.752;2023-09-12T03:07:26;9.40;;;4.55;;
80231;SDS011;70197;42.124;24.752;2023-09-12T03:09:52;10.82;;;4.53;;
80231;SDS011;70197;42.124;24.752;2023-09-12T03:12:18;8.05;;;4.22;;
80231;SDS011;70197;42.124;24.752;2023-09-12T03:14:43;7.15;;;3.80;;
80231;SDS011;70197;42.124;24.752;2023-09-12T03:17:09;14.25;;;4.55;;
80231;SDS011;70197;42.124;24.752;2023-09-12T03:19:34;9.27;;;3.60;;
80231;SDS011;70197;42.124;24.752;2023-09-12T03:22:00;13.85;;;4.05;;
80231;SDS011;70197;42.124;24.752;2023-09-12T03:24:26;9.55;;;4.57;;
80231;SDS011;70197;42.124;24.752;2023-09-12T03:26:53;9.25;;;4.07;;
80231;SDS011;70197;42.124;24.752;2023-09-12T03:29:19;10.30;;;4.18;;
80231;SDS011;70197;42.124;24.752;2023-09-12T03:31:45;9.95;;;3.78;;
80231;SDS011;70197;42.124;24.752;2023-09-12T03:34:10;8.13;;;3.90;;
80231;SDS011;70197;42.124;24.752;2023-09-12T03:36:36;15.45;;;4.30;;
80231;SDS011;70197;42.124;24.752;2023-09-12T03:39:02;12.95;;;4.03;;
80231;SDS011;70197;42.124;24.752;2023-09-12T03:41:30;16.45;;;4.68;;
80231;SDS011;70197;42.124;24.752;2023-09-12T03:43:56;8.98;;;3.80;;
80231;SDS011;70197;42.124;24.752;2023-09-12T03:46:21;14.68;;;4.32;;
80231;SDS011;70197;42.124;24.752;2023-09-12T03:48:47;11.60;;;5.00;;
80231;SDS011;70197;42.124;24.752;2023-09-12T03:51:13;9.65;;;4.13;;
80231;SDS011;70197;42.124;24.752;2023-09-12T03:53:39;10.55;;;4.43;;
80231;SDS011;70197;42.124;24.752;2023-09-12T03:56:05;12.93;;;4.63;;
80231;SDS011;70197;42.124;24.752;2023-09-12T03:58:31;11.25;;;3.92;;
80231;SDS011;70197;42.124;24.752;2023-09-12T04:00:57;12.30;;;4.55;;
80231;SDS011;70197;42.124;24.752;2023-09-12T04:03:22;17.05;;;5.10;;
80231;SDS011;70197;42.124;24.752;2023-09-12T04:05:49;8.45;;;4.03;;
80231;SDS011;70197;42.124;24.752;2023-09-12T04:08:15;11.57;;;4.40;;
80231;SDS011;70197;42.124;24.752;2023-09-12T04:10:41;11.88;;;4.60;;
80231;SDS011;70197;42.124;24.752;2023-09-12T04:13:07;10.25;;;5.03;;
80231;SDS011;70197;42.124;24.752;2023-09-12T04:15:33;10.18;;;4.40;;
80231;SDS011;70197;42.124;24.752;2023-09-12T04:17:58;9.68;;;4.70;;
80231;SDS011;70197;42.124;24.752;2023-09-12T04:20:24;15.77;;;4.60;;
80231;SDS011;70197;42.124;24.752;2023-09-12T04:22:50;13.25;;;4.47;;
80231;SDS011;70197;42.124;24.752;2023-09-12T04:25:16;11.50;;;4.25;;
80231;SDS011;70197;42.124;24.752;2023-09-12T04:27:44;11.27;;;4.13;;
80231;SDS011;70197;42.124;24.752;2023-09-12T04:30:10;14.82;;;5.45;;
80231;SDS011;70197;42.124;24.752;2023-09-12T04:32:36;12.57;;;5.15;;
80231;SDS011;70197;42.124;24.752;2023-09-12T04:35:02;10.30;;;4.60;;
80231;SDS011;70197;42.124;24.752;2023-09-12T04:37:28;14.10;;;5.07;;
80231;SDS011;70197;42.124;24.752;2023-09-12T04:39:54;13.10;;;5.32;;
80231;SDS011;70197;42.124;24.752;2023-09-12T04:42:19;13.63;;;4.95;;
80231;SDS011;70197;42.124;24.752;2023-09-12T04:44:45;24.52;;;5.47;;
80231;SDS011;70197;42.124;24.752;2023-09-12T04:47:11;16.58;;;5.25;;
80231;SDS011;70197;42.124;24.752;2023-09-12T04:49:37;20.35;;;5.65;;
80231;SDS011;70197;42.124;24.752;2023-09-12T04:52:04;15.50;;;5.35;;
80231;SDS011;70197;42.124;24.752;2023-09-12T04:54:29;18.40;;;5.78;;
80231;SDS011;70197;42.124;24.752;2023-09-12T04:56:55;27.95;;;5.63;;
80231;SDS011;70197;42.124;24.752;2023-09-12T04:59:21;18.92;;;5.50;;
80231;SDS011;70197;42.124;24.752;2023-09-12T05:01:46;12.02;;;5.07;;
80231;SDS011;70197;42.124;24.752;2023-09-12T05:04:12;13.02;;;5.68;;
80231;SDS011;70197;42.124;24.752;2023-09-12T05:06:37;17.33;;;5.15;;
80231;SDS011;70197;42.124;24.752;2023-09-12T05:09:05;17.40;;;5.55;;
80231;SDS011;70197;42.124;24.752;2023-09-12T05:11:31;13.32;;;5.60;;
80231;SDS011;70197;42.124;24.752;2023-09-12T05:13:56;48.30;;;6.63;;
80231;SDS011;70197;42.124;24.752;2023-09-12T05:16:22;34.08;;;5.53;;
80231;SDS011;70197;42.124;24.752;2023-09-12T05:18:48;15.73;;;5.03;;
80231;SDS011;70197;42.124;24.752;2023-09-12T05:21:14;15.88;;;5.38;;
80231;SDS011;70197;42.124;24.752;2023-09-12T05:23:40;24.10;;;5.18;;
80231;SDS011;70197;42.124;24.752;2023-09-12T05:26:06;20.00;;;4.90;;
80231;SDS011;70197;42.124;24.752;2023-09-12T05:28:32;15.63;;;4.85;;
80231;SDS011;70197;42.124;24.752;2023-09-12T05:30:58;15.43;;;4.95;;
80231;SDS011;70197;42.124;24.752;2023-09-12T05:33:24;20.58;;;4.80;;
80231;SDS011;70197;42.124;24.752;2023-09-12T05:35:50;13.02;;;5.15;;
80231;SDS011;70197;42.124;24.752;2023-09-12T05:38:15;14.43;;;5.65;;
80231;SDS011;70197;42.124;24.752;2023-09-12T05:40:41;21.67;;;6.22;;
80231;SDS011;70197;42.124;24.752;2023-09-12T05:43:06;21.45;;;6.05;;
80231;SDS011;70197;42.124;24.752;2023-09-12T05:45:32;19.50;;;5.47;;
80231;SDS011;70197;42.124;24.752;2023-09-12T05:47:58;17.27;;;5.40;;
80231;SDS011;70197;42.124;24.752;2023-09-12T05:50:24;11.75;;;5.28;;
80231;SDS011;70197;42.124;24.752;2023-09-12T05:52:50;10.02;;;5.20;;
80231;SDS011;70197;42.124;24.752;2023-09-12T05:55:16;14.25;;;5.63;;
80231;SDS011;70197;42.124;24.752;2023-09-12T05:57:42;16.63;;;5.82;;
80231;SDS011;70197;42.124;24.752;2023-09-12T06:00:08;17.13;;;5.63;;
80231;SDS011;70197;42.124;24.752;2023-09-12T06:02:37;21.60;;;6.10;;
80231;SDS011;70197;42.124;24.752;2023-09-12T06:05:03;19.40;;;5.70;;
80231;SDS011;70197;42.124;24.752;2023-09-12T06:07:29;18.42;;;6.25;;
80231;SDS011;70197;42.124;24.752;2023-09-12T06:09:57;11.18;;;5.47;;
80231;SDS011;70197;42.124;24.752;2023-09-12T06:12:23;31.83;;;6.30;;
80231;SDS011;70197;42.124;24.752;2023-09-12T06:14:48;21.90;;;6.05;;
80231;SDS011;70197;42.124;24.752;2023-09-12T06:17:14;20.73;;;5.70;;
80231;SDS011;70197;42.124;24.752;2023-09-12T06:19:40;18.92;;;5.78;;
80231;SDS011;70197;42.124;24.752;2023-09-12T06:22:06;17.13;;;6.13;;
80231;SDS011;70197;42.124;24.752;2023-09-12T06:24:31;28.65;;;5.95;;
80231;SDS011;70197;42.124;24.752;2023-09-12T06:26:57;24.52;;;6.00;;
80231;SDS011;70197;42.124;24.752;2023-09-12T06:29:22;28.85;;;6.03;;
80231;SDS011;70197;42.124;24.752;2023-09-12T06:31:48;20.27;;;6.43;;
80231;SDS011;70197;42.124;24.752;2023-09-12T06:34:14;22.23;;;6.38;;
80231;SDS011;70197;42.124;24.752;2023-09-12T06:36:39;21.73;;;6.10;;
80231;SDS011;70197;42.124;24.752;2023-09-12T06:39:09;33.58;;;5.55;;
80231;SDS011;70197;42.124;24.752;2023-09-12T06:41:35;19.08;;;6.47;;
80231;SDS011;70197;42.124;24.752;2023-09-12T06:44:01;32.95;;;6.07;;
80231;SDS011;70197;42.124;24.752;2023-09-12T06:46:28;18.08;;;6.30;;
80231;SDS011;70197;42.124;24.752;2023-09-12T06:48:53;29.83;;;6.35;;
80231;SDS011;70197;42.124;24.752;2023-09-12T06:51:22;21.02;;;5.97;;
80231;SDS011;70197;42.124;24.752;2023-09-12T06:53:50;13.55;;;5.28;;
80231;SDS011;70197;42.124;24.752;2023-09-12T06:56:16;24.27;;;6.22;;
80231;SDS011;70197;42.124;24.752;2023-09-12T06:58:41;21.42;;;5.90;;
80231;SDS011;70197;42.124;24.752;2023-09-12T07:01:07;18.90;;;5.72;;
80231;SDS011;70197;42.124;24.752;2023-09-12T07:03:33;18.30;;;5.07;;
80231;SDS011;70197;42.124;24.752;2023-09-12T07:06:00;14.95;;;5.00;;
80231;SDS011;70197;42.124;24.752;2023-09-12T07:08:26;12.50;;;4.60;;
80231;SDS011;70197;42.124;24.752;2023-09-12T07:10:53;11.13;;;4.20;;
80231;SDS011;70197;42.124;24.752;2023-09-12T07:13:20;10.55;;;4.43;;
80231;SDS011;70197;42.124;24.752;2023-09-12T07:15:47;11.38;;;4.45;;
80231;SDS011;70197;42.124;24.752;2023-09-12T07:18:12;15.07;;;4.22;;
80231;SDS011;70197;42.124;24.752;2023-09-12T07:20:40;14.25;;;5.05;;
80231;SDS011;70197;42.124;24.752;2023-09-12T07:23:06;20.27;;;5.40;;
80231;SDS011;70197;42.124;24.752;2023-09-12T07:25:36;17.48;;;4.63;;
80231;SDS011;70197;42.124;24.752;2023-09-12T07:28:04;19.65;;;4.88;;
80231;SDS011;70197;42.124;24.752;2023-09-12T07:30:30;19.25;;;4.90;;
80231;SDS011;70197;42.124;24.752;2023-09-12T07:32:56;22.42;;;4.65;;
80231;SDS011;70197;42.124;24.752;2023-09-12T07:35:21;17.38;;;4.00;;
80231;SDS011;70197;42.124;24.752;2023-09-12T07:37:49;13.60;;;4.25;;
80231;SDS011;70197;42.124;24.752;2023-09-12T07:40:15;19.42;;;4.47;;
80231;SDS011;70197;42.124;24.752;2023-09-12T07:42:40;14.13;;;4.40;;
80231;SDS011;70197;42.124;24.752;2023-09-12T07:45:07;18.50;;;4.65;;
80231;SDS011;70197;42.124;24.752;2023-09-12T07:47:33;13.40;;;4.72;;
80231;SDS011;70197;42.124;24.752;2023-09-12T07:49:58;15.38;;;4.32;;
80231;SDS011;70197;42.124;24.752;2023-09-12T07:52:25;24.73;;;4.72;;
80231;SDS011;70197;42.124;24.752;2023-09-12T07:54:52;24.95;;;4.35;;
80231;SDS011;70197;42.124;24.752;2023-09-12T07:57:22;15.45;;;4.50;;
80231;SDS011;70197;42.124;24.752;2023-09-12T07:59:48;15.68;;;4.20;;
80231;SDS011;70197;42.124;24.752;2023-09-12T08:02:14;13.90;;;4.25;;
80231;SDS011;70197;42.124;24.752;2023-09-12T08:04:39;12.15;;;3.90;;
80231;SDS011;70197;42.124;24.752;2023-09-12T08:07:05;14.57;;;4.13;;
80231;SDS011;70197;42.124;24.752;2023-09-12T08:12:20;10.18;;;3.80;;
80231;SDS011;70197;42.124;24.752;2023-09-12T08:14:46;16.67;;;4.03;;
80231;SDS011;70197;42.124;24.752;2023-09-12T08:17:12;11.70;;;3.72;;
80231;SDS011;70197;42.124;24.752;2023-09-12T08:19:39;19.35;;;4.15;;
80231;SDS011;70197;42.124;24.752;2023-09-12T08:22:05;15.48;;;4.07;;
80231;SDS011;70197;42.124;24.752;2023-09-12T08:24:32;27.30;;;4.70;;
80231;SDS011;70197;42.124;24.752;2023-09-12T08:26:58;15.52;;;4.13;;
80231;SDS011;70197;42.124;24.752;2023-09-12T08:29:24;12.70;;;3.80;;
80231;SDS011;70197;42.124;24.752;2023-09-12T08:31:50;17.80;;;4.25;;
80231;SDS011;70197;42.124;24.752;2023-09-12T08:34:15;13.07;;;4.30;;
80231;SDS011;70197;42.124;24.752;2023-09-12T08:36:41;15.60;;;3.80;;
80231;SDS011;70197;42.124;24.752;2023-09-12T08:39:11;12.70;;;3.55;;
80231;SDS011;70197;42.124;24.752;2023-09-12T08:41:38;29.63;;;4.50;;
80231;SDS011;70197;42.124;24.752;2023-09-12T08:44:04;19.58;;;4.20;;
80231;SDS011;70197;42.124;24.752;2023-09-12T08:46:31;14.15;;;3.80;;
80231;SDS011;70197;42.124;24.752;2023-09-12T08:48:56;21.58;;;4.55;;
80231;SDS011;70197;42.124;24.752;2023-09-12T08:51:23;18.50;;;3.70;;
80231;SDS011;70197;42.124;24.752;2023-09-12T08:53:49;16.23;;;3.45;;
80231;SDS011;70197;42.124;24.752;2023-09-12T08:56:15;14.98;;;3.45;;
80231;SDS011;70197;42.124;24.752;2023-09-12T08:58:42;12.02;;;3.28;;
80231;SDS011;70197;42.124;24.752;2023-09-12T09:01:09;18.77;;;3.50;;
80231;SDS011;70197;42.124;24.752;2023-09-12T09:03:37;15.10;;;3.33;;
80231;SDS011;70197;42.124;24.752;2023-09-12T09:06:04;12.93;;;3.13;;
80231;SDS011;70197;42.124;24.752;2023-09-12T09:08:31;9.30;;;3.00;;
80231;SDS011;70197;42.124;24.752;2023-09-12T09:10:59;9.00;;;2.67;;
80231;SDS011;70197;42.124;24.752;2023-09-12T09:13:28;7.78;;;2.70;;
80231;SDS011;70197;42.124;24.752;2023-09-12T09:16:13;10.80;;;2.95;;
80231;SDS011;70197;42.124;24.752;2023-09-12T09:18:53;10.80;;;3.05;;
80231;SDS011;70197;42.124;24.752;2023-09-12T09:21:20;12.90;;;2.90;;
80231;SDS011;70197;42.124;24.752;2023-09-12T09:23:49;14.85;;;2.95;;
80231;SDS011;70197;42.124;24.752;2023-09-12T09:26:16;7.93;;;3.20;;
80231;SDS011;70197;42.124;24.752;2023-09-12T09:28:42;17.83;;;3.20;;
80231;SDS011;70197;42.124;24.752;2023-09-12T09:31:13;12.85;;;3.10;;
80231;SDS011;70197;42.124;24.752;2023-09-12T09:33:39;12.60;;;3.45;;
80231;SDS011;70197;42.124;24.752;2023-09-12T09:36:06;26.45;;;3.67;;
80231;SDS011;70197;42.124;24.752;2023-09-12T09:38:35;20.92;;;3.38;;
80231;SDS011;70197;42.124;24.752;2023-09-12T09:41:06;10.73;;;3.20;;
80231;SDS011;70197;42.124;24.752;2023-09-12T09:43:32;8.83;;;3.00;;
80231;SDS011;70197;42.124;24.752;2023-09-12T09:45:59;13.20;;;3.00;;
80231;SDS011;70197;42.124;24.752;2023-09-12T09:48:25;14.30;;;3.28;;
80231;SDS011;70197;42.124;24.752;2023-09-12T09:51:01;31.27;;;4.07;;
80231;SDS011;70197;42.124;24.752;2023-09-12T09:53:28;19.93;;;3.20;;
80231;SDS011;70197;42.124;24.752;2023-09-12T09:56:13;10.88;;;3.55;;
80231;SDS011;70197;42.124;24.752;2023-09-12T09:58:46;14.80;;;3.40;;
80231;SDS011;70197;42.124;24.752;2023-09-12T10:01:28;17.13;;;4.00;;
80231;SDS011;70197;42.124;24.752;2023-09-12T10:03:59;6.72;;;3.20;;
80231;SDS011;70197;42.124;24.752;2023-09-12T10:06:26;12.85;;;3.50;;
80231;SDS011;70197;42.124;24.752;2023-09-12T10:08:53;17.55;;;3.88;;
80231;SDS011;70197;42.124;24.752;2023-09-12T10:11:23;14.55;;;3.83;;
80231;SDS011;70197;42.124;24.752;2023-09-12T10:13:55;22.15;;;4.10;;
80231;SDS011;70197;42.124;24.752;2023-09-12T10:16:23;11.52;;;3.35;;
80231;SDS011;70197;42.124;24.752;2023-09-12T10:18:56;8.18;;;3.38;;
80231;SDS011;70197;42.124;24.752;2023-09-12T10:24:34;8.93;;;3.10;;
80231;SDS011;70197;42.124;24.752;2023-09-12T10:27:00;8.20;;;3.63;;
80231;SDS011;70197;42.124;24.752;2023-09-12T10:29:28;15.20;;;3.58;;
80231;SDS011;70197;42.124;24.752;2023-09-12T10:31:55;13.10;;;3.67;;
80231;SDS011;70197;42.124;24.752;2023-09-12T10:34:21;6.55;;;3.13;;
80231;SDS011;70197;42.124;24.752;2023-09-12T10:36:50;12.15;;;3.55;;
80231;SDS011;70197;42.124;24.752;2023-09-12T10:39:17;7.82;;;3.20;;
80231;SDS011;70197;42.124;24.752;2023-09-12T10:41:44;9.07;;;3.05;;
80231;SDS011;70197;42.124;24.752;2023-09-12T10:44:15;12.75;;;3.40;;
80231;SDS011;70197;42.124;24.752;2023-09-12T10:46:41;8.88;;;2.95;;
80231;SDS011;70197;42.124;24.752;2023-09-12T10:49:10;8.00;;;3.22;;
80231;SDS011;70197;42.124;24.752;2023-09-12T10:51:42;6.65;;;3.20;;
80231;SDS011;70197;42.124;24.752;2023-09-12T10:54:12;9.85;;;3.20;;
80231;SDS011;70197;42.124;24.752;2023-09-12T10:57:02;8.05;;;3.35;;
80231;SDS011;70197;42.124;24.752;2023-09-12T10:59:29;9.85;;;3.60;;
80231;SDS011;70197;42.124;24.752;2023-09-12T11:02:00;10.38;;;3.30;;
80231;SDS011;70197;42.124;24.752;2023-09-12T11:05:02;11.35;;;3.53;;
80231;SDS011;70197;42.124;24.752;2023-09-12T11:08:17;20.10;;;3.28;;
80231;SDS011;70197;42.124;24.752;2023-09-12T11:10:22;6.47;;;3.25;;
80231;SDS011;70197;42.124;24.752;2023-09-12T11:12:54;7.97;;;3.28;;
80231;SDS011;70197;42.124;24.752;2023-09-12T11:15:22;11.10;;;3.17;;
80231;SDS011;70197;42.124;24.752;2023-09-12T11:18:00;10.45;;;3.35;;
80231;SDS011;70197;42.124;24.752;2023-09-12T11:20:26;7.53;;;3.20;;
80231;SDS011;70197;42.124;24.752;2023-09-12T11:23:11;7.47;;;3.45;;
80231;SDS011;70197;42.124;24.752;2023-09-12T11:25:37;12.63;;;3.65;;
80231;SDS011;70197;42.124;24.752;2023-09-12T11:28:03;6.68;;;3.67;;
80231;SDS011;70197;42.124;24.752;2023-09-12T11:30:30;7.85;;;3.10;;
80231;SDS011;70197;42.124;24.752;2023-09-12T11:32:56;11.45;;;4.28;;
80231;SDS011;70197;42.124;24.752;2023-09-12T11:35:24;7.22;;;3.15;;
80231;SDS011;70197;42.124;24.752;2023-09-12T11:37:57;11.50;;;3.50;;
80231;SDS011;70197;42.124;24.752;2023-09-12T11:42:59;23.17;;;4.38;;
80231;SDS011;70197;42.124;24.752;2023-09-12T11:45:25;18.38;;;3.80;;
80231;SDS011;70197;42.124;24.752;2023-09-12T11:47:53;14.80;;;3.83;;
80231;SDS011;70197;42.124;24.752;2023-09-12T11:50:25;9.75;;;3.53;;
80231;SDS011;70197;42.124;24.752;2023-09-12T11:53:08;16.48;;;3.65;;
80231;SDS011;70197;42.124;24.752;2023-09-12T11:55:42;10.95;;;3.70;;
80231;SDS011;70197;42.124;24.752;2023-09-12T11:58:12;7.45;;;3.65;;
80231;SDS011;70197;42.124;24.752;2023-09-12T12:00:44;6.95;;;3.60;;
80231;SDS011;70197;42.124;24.752;2023-09-12T12:03:17;11.77;;;3.85;;
80231;SDS011;70197;42.124;24.752;2023-09-12T12:05:43;9.85;;;3.80;;
80231;SDS011;70197;42.124;24.752;2023-09-12T12:08:13;16.05;;;4.32;;
80231;SDS011;70197;42.124;24.752;2023-09-12T12:10:39;15.48;;;3.53;;
80231;SDS011;70197;42.124;24.752;2023-09-12T12:13:06;13.20;;;3.50;;
80231;SDS011;70197;42.124;24.752;2023-09-12T12:15:36;12.25;;;3.85;;
80231;SDS011;70197;42.124;24.752;2023-09-12T12:18:03;19.45;;;3.63;;
80231;SDS011;70197;42.124;24.752;2023-09-12T12:20:29;19.08;;;3.85;;
80231;SDS011;70197;42.124;24.752;2023-09-12T12:22:55;14.88;;;3.75;;
80231;SDS011;70197;42.124;24.752;2023-09-12T12:25:21;6.03;;;2.95;;
80231;SDS011;70197;42.124;24.752;2023-09-12T12:27:47;13.75;;;4.28;;
80231;SDS011;70197;42.124;24.752;2023-09-12T12:30:13;11.25;;;3.65;;
80231;SDS011;70197;42.124;24.752;2023-09-12T12:32:42;17.83;;;3.78;;
80231;SDS011;70197;42.124;24.752;2023-09-12T12:35:16;22.80;;;4.63;;
80231;SDS011;70197;42.124;24.752;2023-09-12T12:37:49;29.52;;;4.32;;
80231;SDS011;70197;42.124;24.752;2023-09-12T12:40:16;7.88;;;3.72;;
80231;SDS011;70197;42.124;24.752;2023-09-12T12:42:43;19.65;;;3.97;;
80231;SDS011;70197;42.124;24.752;2023-09-12T12:45:21;13.45;;;3.63;;
80231;SDS011;70197;42.124;24.752;2023-09-12T12:47:58;12.05;;;3.78;;
80231;SDS011;70197;42.124;24.752;2023-09-12T12:50:26;14.98;;;3.67;;
80231;SDS011;70197;42.124;24.752;2023-09-12T12:52:51;10.73;;;3.50;;
80231;SDS011;70197;42.124;24.752;2023-09-12T12:55:17;10.10;;;3.63;;
80231;SDS011;70197;42.124;24.752;2023-09-12T12:57:45;12.95;;;3.78;;
80231;SDS011;70197;42.124;24.752;2023-09-12T13:00:14;13.63;;;3.67;;
80231;SDS011;70197;42.124;24.752;2023-09-12T13:02:41;10.63;;;3.65;;
80231;SDS011;70197;42.124;24.752;2023-09-12T13:07:46;10.18;;;4.00;;
80231;SDS011;70197;42.124;24.752;2023-09-12T13:10:12;11.50;;;3.58;;
80231;SDS011;70197;42.124;24.752;2023-09-12T13:12:37;13.23;;;3.40;;
80231;SDS011;70197;42.124;24.752;2023-09-12T13:15:04;8.63;;;3.38;;
80231;SDS011;70197;42.124;24.752;2023-09-12T13:17:30;8.02;;;3.45;;
80231;SDS011;70197;42.124;24.752;2023-09-12T13:19:56;8.75;;;3.70;;
80231;SDS011;70197;42.124;24.752;2023-09-12T13:22:22;11.10;;;3.90;;
80231;SDS011;70197;42.124;24.752;2023-09-12T13:24:47;13.60;;;4.10;;
80231;SDS011;70197;42.124;24.752;2023-09-12T13:27:13;8.73;;;3.78;;
80231;SDS011;70197;42.124;24.752;2023-09-12T13:29:39;5.97;;;3.40;;
80231;SDS011;70197;42.124;24.752;2023-09-12T13:32:05;10.70;;;3.70;;
80231;SDS011;70197;42.124;24.752;2023-09-12T13:34:30;11.90;;;3.55;;
80231;SDS011;70197;42.124;24.752;2023-09-12T13:36:56;11.57;;;3.50;;
80231;SDS011;70197;42.124;24.752;2023-09-12T13:39:23;12.48;;;3.78;;
80231;SDS011;70197;42.124;24.752;2023-09-12T13:41:49;12.15;;;3.90;;
80231;SDS011;70197;42.124;24.752;2023-09-12T13:44:15;18.73;;;3.97;;
80231;SDS011;70197;42.124;24.752;2023-09-12T13:46:41;9.20;;;3.65;;
80231;SDS011;70197;42.124;24.752;2023-09-12T13:49:09;7.50;;;3.50;;
80231;SDS011;70197;42.124;24.752;2023-09-12T13:51:35;12.35;;;4.25;;
80231;SDS011;70197;42.124;24.752;2023-09-12T13:54:01;56.92;;;5.03;;
80231;SDS011;70197;42.124;24.752;2023-09-12T13:56:27;34.38;;;4.15;;
80231;SDS011;70197;42.124;24.752;2023-09-12T13:58:53;6.90;;;3.33;;
80231;SDS011;70197;42.124;24.752;2023-09-12T14:01:19;12.13;;;3.60;;
80231;SDS011;70197;42.124;24.752;2023-09-12T14:03:45;14.85;;;3.83;;
80231;SDS011;70197;42.124;24.752;2023-09-12T14:06:11;22.33;;;4.50;;
80231;SDS011;70197;42.124;24.752;2023-09-12T14:08:36;24.23;;;4.10;;
80231;SDS011;70197;42.124;24.752;2023-09-12T14:11:02;20.05;;;3.90;;
80231;SDS011;70197;42.124;24.752;2023-09-12T14:13:28;9.05;;;3.63;;
80231;SDS011;70197;42.124;24.752;2023-09-12T14:15:53;13.25;;;3.63;;
80231;SDS011;70197;42.124;24.752;2023-09-12T14:18:19;8.85;;;3.83;;
80231;SDS011;70197;42.124;24.752;2023-09-12T14:20:45;11.07;;;3.90;;
80231;SDS011;70197;42.124;24.752;2023-09-12T14:23:11;6.93;;;3.50;;
80231;SDS011;70197;42.124;24.752;2023-09-12T14:25:37;8.70;;;3.83;;
80231;SDS011;70197;42.124;24.752;2023-09-12T14:28:03;11.73;;;3.60;;
80231;SDS011;70197;42.124;24.752;2023-09-12T14:30:30;13.02;;;3.97;;
80231;SDS011;70197;42.124;24.752;2023-09-12T14:33:00;20.10;;;4.00;;
80231;SDS011;70197;42.124;24.752;2023-09-12T14:35:27;8.70;;;3.30;;
80231;SDS011;70197;42.124;24.752;2023-09-12T14:37:53;15.82;;;4.35;;
80231;SDS011;70197;42.124;24.752;2023-09-12T14:40:18;34.38;;;5.32;;
80231;SDS011;70197;42.124;24.752;2023-09-12T14:42:44;18.48;;;4.45;;
80231;SDS011;70197;42.124;24.752;2023-09-12T14:45:10;15.82;;;4.20;;